Time;durP1;ratioP1;P1;durP2;ratioP2;P2;SDS_P1;SDS_P2;PMS_P1;PMS_P2;Temp;Humidity;BMP_temperature;BMP_pressure;BME280_temperature;BME280_humidity;BME280_pressure;Samples;Min_cycle;Max_cycle;Signal;HPM_P1;HPM_P2
2022/09/30 00:00:56;;;;;;;;;24.50;23.75;;;;;11.64;65.61;100175.41;4996920;28;45981;-58
2022/09/30 00:03:22;;;;;;;;;27.00;24.00;;;;;12.17;65.99;100261.81;4995662;28;45451;-59
2022/09/30 00:05:55;;;;;;;;;25.20;21.60;;;;;12.15;66.07;100263.97;4997181;28;45390;-59
2022/09/30 00:08:21;;;;;;;;;29.00;23.60;;;;;12.10;66.01;100261.06;4997156;28;45285;-59
2022/09/30 00:10:46;;;;;;;;;26.50;25.75;;;;;12.13;65.88;100257.88;4996706;28;46469;-58
2022/09/30 00:13:12;;;;;;;;;25.50;22.75;;;;;12.17;65.94;100260.97;4996777;28;45401;-57
2022/09/30 00:15:40;;;;;;;;;25.75;21.25;;;;;12.01;65.79;100240.44;4996944;28;45367;-58
2022/09/30 00:18:05;;;;;;;;;27.80;24.60;;;;;12.16;66.12;100265.63;4995878;28;45507;-59
2022/09/30 00:20:31;;;;;;;;;28.50;23.25;;;;;12.16;65.88;100254.63;5011669;28;45467;-56
2022/09/30 00:22:56;;;;;;;;;26.50;23.25;;;;;12.08;66.02;100252.22;4996785;28;45473;-58
2022/09/30 00:25:22;;;;;;;;;26.75;23.50;;;;;12.10;66.40;100255.56;4995715;28;45429;-59
2022/09/30 00:27:47;;;;;;;;;23.50;21.25;;;;;12.14;65.62;100254.03;4999370;28;45371;-58
2022/09/30 00:30:13;;;;;;;;;25.00;22.00;;;;;12.16;66.01;100262.03;4996456;28;45661;-58
2022/09/30 00:32:39;;;;;;;;;21.25;21.00;;;;;12.16;66.05;100267.53;5011696;28;45292;-58
2022/09/30 00:35:04;;;;;;;;;25.00;22.50;;;;;12.01;65.80;100255.03;5011738;28;45464;-58
2022/09/30 00:37:30;;;;;;;;;26.75;25.00;;;;;12.14;65.77;100272.44;4996498;28;45388;-57
2022/09/30 00:39:56;;;;;;;;;21.25;20.00;;;;;11.99;65.61;100240.69;4961927;28;46168;-58
2022/09/30 00:42:22;;;;;;;;;23.20;23.20;;;;;12.17;65.82;100260.97;5014372;28;45403;-57
2022/09/30 00:44:54;;;;;;;;;26.00;23.25;;;;;12.08;66.11;100252.22;5015969;28;45370;-58
2022/09/30 00:47:37;;;;;;;;;22.40;22.40;;;;;12.12;65.85;100260.84;5016477;28;45371;-58
2022/09/30 00:50:14;;;;;;;;;20.80;20.40;;;;;12.11;66.09;100270.16;5015404;28;45951;-58
2022/09/30 00:52:40;;;;;;;;;21.20;19.40;;;;;11.97;65.75;100245.59;5015638;28;45478;-58
2022/09/30 00:55:08;;;;;;;;;11.40;11.40;;;;;12.09;65.78;100273.16;4981942;28;45373;-58
2022/09/30 00:57:36;;;;;;;;;23.20;20.40;;;;;12.07;65.82;100272.56;5016187;28;45340;-58
2022/09/30 01:00:02;;;;;;;;;23.40;21.00;;;;;12.06;65.85;100268.94;5015615;28;45731;-59
2022/09/30 01:02:28;;;;;;;;;24.00;19.75;;;;;11.80;66.00;100237.97;5016017;28;45555;-58
2022/09/30 01:04:53;;;;;;;;;21.25;17.50;;;;;12.02;65.92;100272.38;5015609;28;45395;-58
2022/09/30 01:07:19;;;;;;;;;18.00;17.00;;;;;12.01;66.07;100267.94;4981718;28;45431;-59
2022/09/30 01:09:45;;;;;;;;;18.25;15.50;;;;;11.88;65.97;100249.72;4997851;28;45574;-57
2022/09/30 01:12:15;;;;;;;;;16.75;16.25;;;;;11.98;65.76;100277.50;4997969;28;45320;-57
2022/09/30 01:14:41;;;;;;;;;21.20;19.00;;;;;11.73;65.89;100241.88;5014532;28;45346;-57
2022/09/30 01:17:12;;;;;;;;;20.00;20.00;;;;;11.96;65.67;100281.56;5015559;28;45486;-59
2022/09/30 01:20:02;;;;;;;;;16.20;15.60;;;;;11.92;66.22;100278.44;5015435;28;45317;-56
2022/09/30 01:22:39;;;;;;;;;20.60;18.00;;;;;11.87;65.98;100276.38;5015277;28;45402;-58
2022/09/30 01:25:24;;;;;;;;;16.60;16.60;;;;;11.89;65.99;100278.88;4997874;28;45424;-58
2022/09/30 01:28:17;;;;;;;;;19.40;19.40;;;;;11.68;65.96;100239.00;5014111;28;45492;-58
2022/09/30 01:30:48;;;;;;;;;22.20;20.60;;;;;11.88;66.26;100277.22;5015634;28;46708;-58
2022/09/30 01:33:16;;;;;;;;;17.40;17.00;;;;;11.87;65.99;100270.03;4998204;28;45461;-58
2022/09/30 01:36:04;;;;;;;;;19.80;17.80;;;;;11.86;65.84;100276.63;5015548;28;45434;-58
2022/09/30 01:38:55;;;;;;;;;16.20;16.20;;;;;11.84;66.32;100271.34;5015378;28;45415;-57
2022/09/30 01:41:27;;;;;;;;;24.60;17.60;;;;;11.84;65.92;100270.50;4997308;28;45923;-56
2022/09/30 01:44:18;;;;;;;;;20.40;18.40;;;;;11.77;66.64;100271.44;5008345;28;46436;-57
2022/09/30 01:46:53;;;;;;;;;21.00;16.20;;;;;11.80;66.29;100276.47;5013654;28;45464;-56
2022/09/30 01:49:30;;;;;;;;;20.80;17.00;;;;;11.27;66.33;100178.22;5004155;28;45525;-58
2022/09/30 01:52:06;;;;;;;;;19.80;19.20;;;;;11.79;66.50;100274.78;5013305;28;45752;-57
2022/09/30 01:54:51;;;;;;;;;18.60;18.40;;;;;11.79;66.03;100283.03;4995274;28;45831;-58
2022/09/30 01:57:23;;;;;;;;;18.00;15.00;;;;;11.83;66.24;100282.56;4997513;28;45398;-58
2022/09/30 02:00:06;;;;;;;;;21.00;21.00;;;;;11.78;66.35;100286.84;4997882;28;45440;-55
2022/09/30 02:02:53;;;;;;;;;15.40;15.00;;;;;11.77;66.27;100278.84;5030095;28;46373;-58
2022/09/30 02:05:23;;;;;;;;;17.40;16.40;;;;;11.72;66.37;100278.69;4996928;28;45502;-55
2022/09/30 02:08:15;;;;;;;;;20.40;17.80;;;;;11.72;66.05;100270.44;4997696;28;45235;-58
2022/09/30 02:10:45;;;;;;;;;17.80;16.00;;;;;11.77;66.21;100270.59;4978572;28;45377;-59
2022/09/30 02:13:19;;;;;;;;;17.20;17.20;;;;;11.75;66.28;100284.56;5014997;28;46134;-57
2022/09/30 02:15:48;;;;;;;;;16.80;14.40;;;;;11.72;66.54;100285.03;4997421;28;45467;-63
2022/09/30 02:18:27;;;;;;;;;18.20;16.20;;;;;11.65;66.75;100278.78;5013894;28;45494;-59
2022/09/30 02:20:57;;;;;;;;;16.80;14.80;;;;;11.64;66.24;100279.84;4982476;28;45324;-58
2022/09/30 02:23:32;;;;;;;;;14.60;13.00;;;;;11.68;66.66;100278.31;4980950;28;45628;-58
2022/09/30 02:26:04;;;;;;;;;18.40;16.00;;;;;11.64;66.24;100268.88;5014554;28;45664;-58
2022/09/30 02:28:30;;;;;;;;;25.60;20.80;;;;;11.69;66.56;100265.41;5013761;28;45677;-59
2022/09/30 02:30:57;;;;;;;;;17.50;15.25;;;;;11.69;66.81;100266.22;4997178;28;45500;-58
2022/09/30 02:33:28;;;;;;;;;17.80;17.80;;;;;11.66;66.75;100266.72;4980698;28;48709;-57
2022/09/30 02:35:58;;;;;;;;;22.40;18.00;;;;;11.69;66.67;100273.66;4981164;28;45317;-57
2022/09/30 02:38:27;;;;;;;;;19.00;17.80;;;;;11.61;66.79;100250.06;4980485;28;45493;-58
2022/09/30 02:40:56;;;;;;;;;23.60;19.40;;;;;11.70;66.90;100269.84;4980786;28;45566;-58
2022/09/30 02:43:21;;;;;;;;;16.80;15.60;;;;;11.70;66.58;100272.59;4997007;28;46372;-58
2022/09/30 02:45:54;;;;;;;;;20.00;20.00;;;;;11.63;66.80;100265.25;4996601;28;45780;-57
2022/09/30 02:48:28;;;;;;;;;18.00;17.00;;;;;11.64;66.83;100268.88;5013810;28;45657;-59
2022/09/30 02:51:19;;;;;;;;;18.40;17.40;;;;;11.65;67.01;100270.53;5018003;28;45728;-58
2022/09/30 02:54:01;;;;;;;;;21.40;18.60;;;;;11.61;66.72;100285.78;5017440;28;46726;-59
2022/09/30 02:56:54;;;;;;;;;20.80;18.40;;;;;11.60;66.69;100292.38;5001441;28;45465;-57
2022/09/30 02:59:21;;;;;;;;;24.20;20.00;;;;;11.01;66.59;100192.03;5018152;28;45318;-58
2022/09/30 03:01:46;;;;;;;;;19.40;18.00;;;;;11.53;66.59;100284.22;4983444;28;45463;-60
2022/09/30 03:04:13;;;;;;;;;17.00;16.00;;;;;11.55;67.01;100295.81;5000205;28;46280;-58
2022/09/30 03:06:38;;;;;;;;;15.00;14.00;;;;;11.55;66.41;100303.22;4999930;28;45468;-58
2022/09/30 03:09:04;;;;;;;;;13.50;13.50;;;;;11.50;67.15;100285.50;5000473;28;45370;-57
2022/09/30 03:11:29;;;;;;;;;19.50;16.25;;;;;11.54;66.93;100294.13;5018147;28;45325;-56
2022/09/30 03:14:05;;;;;;;;;16.00;14.25;;;;;11.36;66.61;100272.97;5017564;28;46069;-57
2022/09/30 03:16:46;;;;;;;;;19.20;16.00;;;;;11.44;66.40;100304.81;5016304;28;45484;-56
2022/09/30 03:19:27;;;;;;;;;15.60;15.20;;;;;11.45;67.07;100311.97;5018033;28;45440;-58
2022/09/30 03:22:18;;;;;;;;;17.80;17.20;;;;;11.46;67.06;100322.75;5016359;28;45468;-59
2022/09/30 03:25:02;;;;;;;;;15.20;15.20;;;;;11.43;66.70;100320.47;5017732;28;45811;-58
2022/09/30 03:27:55;;;;;;;;;17.60;14.20;;;;;11.40;66.71;100329.16;5017304;28;45503;-59
2022/09/30 03:30:25;;;;;;;;;16.60;16.00;;;;;11.40;67.17;100340.16;5017886;28;45363;-58
2022/09/30 03:33:00;;;;;;;;;18.00;17.00;;;;;11.24;66.68;100316.84;4984623;28;45211;-58
2022/09/30 03:35:34;;;;;;;;;15.20;13.60;;;;;11.31;67.32;100345.09;5017435;28;47051;-57
2022/09/30 03:38:39;;;;;;;;;13.40;13.40;;;;;11.28;67.16;100345.56;5017036;28;45506;-59
2022/09/30 03:41:07;;;;;;;;;14.40;14.40;;;;;11.28;66.89;100350.19;4975971;28;45197;-59
2022/09/30 03:43:45;;;;;;;;;15.60;13.20;;;;;10.69;66.79;100256.09;5017843;28;45783;-57
2022/09/30 03:46:30;;;;;;;;;14.20;14.20;;;;;11.08;67.12;100341.09;4999320;28;46717;-56
2022/09/30 03:48:57;;;;;;;;;20.00;18.40;;;;;11.20;67.20;100367.84;5017371;28;45435;-56
2022/09/30 03:51:28;;;;;;;;;19.00;16.20;;;;;11.17;67.58;100379.25;4982967;28;45402;-57
2022/09/30 03:53:54;;;;;;;;;17.20;16.40;;;;;11.15;67.61;100373.16;4984404;28;45575;-56
2022/09/30 03:56:30;;;;;;;;;19.00;18.00;;;;;11.10;67.44;100382.91;4982881;28;47649;-58
2022/09/30 03:58:57;;;;;;;;;20.20;18.80;;;;;11.12;67.70;100383.50;5017026;28;45453;-58
2022/09/30 04:01:22;;;;;;;;;16.40;15.40;;;;;11.05;67.14;100374.50;5015601;28;45510;-59
2022/09/30 04:03:51;;;;;;;;;16.00;13.50;;;;;11.12;67.33;100401.91;4999364;28;45529;-59
2022/09/30 04:06:18;;;;;;;;;12.40;12.40;;;;;10.91;67.52;100372.91;5016220;28;45788;-55
2022/09/30 04:08:43;;;;;;;;;14.40;14.40;;;;;11.03;67.85;100392.25;5017134;28;45422;-56
2022/09/30 04:11:10;;;;;;;;;18.25;16.75;;;;;11.09;67.51;100405.09;5032439;28;45374;-58
2022/09/30 04:13:45;;;;;;;;;15.80;12.60;;;;;11.09;67.56;100407.84;5016892;28;45427;-59
2022/09/30 04:16:11;;;;;;;;;20.40;18.20;;;;;11.09;67.42;100416.94;4999024;28;47661;-58
2022/09/30 04:18:37;;;;;;;;;20.25;17.50;;;;;11.05;67.32;100420.34;4998788;28;45382;-57
2022/09/30 04:21:09;;;;;;;;;16.75;16.75;;;;;11.07;67.78;100426.44;4999249;28;45453;-59
2022/09/30 04:23:35;;;;;;;;;13.40;13.40;;;;;11.07;67.45;100421.81;4982461;28;45758;-62
2022/09/30 04:26:01;;;;;;;;;16.80;14.80;;;;;11.00;67.30;100421.03;5016586;28;46104;-59
2022/09/30 04:28:26;;;;;;;;;15.75;15.25;;;;;10.98;67.52;100421.25;5016227;28;45754;-59
2022/09/30 04:30:52;;;;;;;;;19.25;17.00;;;;;11.02;67.35;100431.75;5016870;28;45362;-59
2022/09/30 04:33:18;;;;;;;;;16.00;16.00;;;;;10.99;67.78;100441.28;5016759;28;45439;-59
2022/09/30 04:35:43;;;;;;;;;16.50;14.75;;;;;10.97;67.88;100446.16;5016451;28;46084;-57
2022/09/30 04:38:09;;;;;;;;;19.50;17.00;;;;;10.96;68.09;100441.75;5016363;28;45322;-57
2022/09/30 04:40:37;;;;;;;;;16.00;14.25;;;;;10.96;68.21;100447.25;5016383;28;45268;-59
2022/09/30 04:43:04;;;;;;;;;12.60;12.60;;;;;10.71;68.22;100413.19;5016606;28;45989;-57
2022/09/30 04:45:30;;;;;;;;;17.80;14.60;;;;;10.95;68.30;100449.13;5016360;28;46558;-58
2022/09/30 04:47:55;;;;;;;;;19.00;17.75;;;;;10.93;68.29;100445.78;5016351;28;45367;-58
2022/09/30 04:50:21;;;;;;;;;15.50;15.50;;;;;10.96;67.74;100441.75;5016545;28;45412;-58
2022/09/30 04:52:46;;;;;;;;;16.75;13.75;;;;;10.66;67.44;100401.19;5016399;28;45283;-58
2022/09/30 04:55:12;;;;;;;;;17.25;16.25;;;;;10.94;67.53;100454.88;4998242;28;45878;-57
2022/09/30 04:57:37;;;;;;;;;17.25;16.25;;;;;10.91;68.31;100453.41;5016050;28;45463;-58
2022/09/30 05:00:04;;;;;;;;;14.25;13.75;;;;;10.83;68.12;100446.25;5016367;28;45401;-57
2022/09/30 05:02:30;;;;;;;;;15.60;13.40;;;;;10.76;67.59;100437.22;5016311;28;45296;-57
2022/09/30 05:04:56;;;;;;;;;18.40;15.60;;;;;10.91;68.39;100453.41;4998034;28;47216;-56
2022/09/30 05:07:21;;;;;;;;;18.25;18.00;;;;;10.73;68.17;100425.84;5015758;28;45503;-57
2022/09/30 05:09:47;;;;;;;;;14.75;14.75;;;;;10.87;67.50;100463.13;5016189;28;45723;-56
2022/09/30 05:12:14;;;;;;;;;15.75;12.75;;;;;10.87;67.33;100471.38;5015618;28;45333;-57
2022/09/30 05:14:40;;;;;;;;;15.40;14.60;;;;;10.84;67.71;100464.41;5015631;28;46187;-56
2022/09/30 05:17:05;;;;;;;;;17.25;14.25;;;;;10.83;67.56;100470.97;4998243;28;45623;-58
2022/09/30 05:19:31;;;;;;;;;17.25;15.25;;;;;10.80;68.01;100474.16;5015848;28;45335;-58
2022/09/30 05:21:56;;;;;;;;;15.00;15.00;;;;;10.80;68.22;100467.81;5016025;28;45354;-59
2022/09/30 05:24:22;;;;;;;;;13.00;12.25;;;;;10.57;68.17;100436.28;5015837;28;45462;-59
2022/09/30 05:26:47;;;;;;;;;17.00;15.00;;;;;10.76;67.87;100464.69;5015668;28;45406;-58
2022/09/30 05:29:13;;;;;;;;;21.00;16.00;;;;;10.80;67.75;100474.16;5015086;28;45524;-58
2022/09/30 05:31:38;;;;;;;;;16.25;16.00;;;;;10.78;68.08;100469.97;5015534;28;45486;-57
2022/09/30 05:34:04;;;;;;;;;20.00;18.75;;;;;10.71;67.79;100469.97;4984097;28;46081;-56
2022/09/30 05:36:29;;;;;;;;;16.75;15.75;;;;;10.69;68.53;100480.34;5015498;28;45341;-56
2022/09/30 05:38:55;;;;;;;;;18.75;16.00;;;;;10.65;68.81;100479.09;5015259;28;45285;-60
2022/09/30 05:41:21;;;;;;;;;19.00;17.25;;;;;10.48;68.58;100451.31;5015853;28;45434;-57
2022/09/30 05:43:47;;;;;;;;;25.20;20.00;;;;;10.62;68.58;100485.84;5014888;28;46492;-58
2022/09/30 05:46:13;;;;;;;;;16.50;15.25;;;;;10.57;67.94;100480.19;5015598;28;45725;-60
2022/09/30 05:48:39;;;;;;;;;18.80;17.60;;;;;10.64;68.41;100489.25;5015255;28;45391;-60
2022/09/30 05:51:08;;;;;;;;;18.25;17.25;;;;;10.66;68.08;100489.84;5015130;28;45264;-58
2022/09/30 05:53:37;;;;;;;;;17.80;16.20;;;;;10.22;68.01;100417.41;4997149;28;46200;-57
2022/09/30 05:56:03;;;;;;;;;18.80;17.20;;;;;10.67;68.88;100490.72;4997748;28;45411;-59
2022/09/30 05:58:28;;;;;;;;;16.00;15.20;;;;;10.63;68.11;100487.56;5015544;28;45236;-59
2022/09/30 06:00:54;;;;;;;;;19.00;17.00;;;;;10.69;67.66;100497.63;5015124;28;45615;-59
2022/09/30 06:03:19;;;;;;;;;16.50;15.50;;;;;10.69;68.42;100494.06;4997262;28;47495;-58
2022/09/30 06:05:45;;;;;;;;;16.75;16.75;;;;;10.64;67.94;100492.00;5014807;28;45398;-59
2022/09/30 06:08:11;;;;;;;;;19.50;17.00;;;;;10.60;68.10;100487.97;5015054;28;45624;-57
2022/09/30 06:10:39;;;;;;;;;12.25;12.00;;;;;10.75;68.02;100504.19;5015155;28;45572;-59
2022/09/30 06:13:04;;;;;;;;;19.20;17.20;;;;;10.76;68.39;100524.22;5014006;28;45640;-58
2022/09/30 06:15:30;;;;;;;;;22.50;19.50;;;;;10.67;68.07;100505.25;5014980;28;45437;-58
2022/09/30 06:17:56;;;;;;;;;17.75;14.25;;;;;10.80;67.74;100525.47;5014645;28;45686;-57
2022/09/30 06:20:21;;;;;;;;;19.50;17.75;;;;;10.80;68.05;100526.34;5015252;28;45264;-56
2022/09/30 06:22:47;;;;;;;;;19.50;18.75;;;;;10.81;68.55;100529.91;5014550;28;45582;-56
2022/09/30 06:25:13;;;;;;;;;19.00;18.00;;;;;10.74;68.24;100518.13;5017419;28;45812;-58
2022/09/30 06:27:38;;;;;;;;;21.40;18.40;;;;;10.78;68.38;100533.91;5000626;28;45428;-58
2022/09/30 06:30:05;;;;;;;;;29.00;22.75;;;;;10.81;67.60;100538.13;5018316;28;45746;-59
2022/09/30 06:32:30;;;;;;;;;25.40;20.80;;;;;10.85;67.78;100544.88;5018540;28;46128;-59
2022/09/30 06:34:56;;;;;;;;;21.00;18.50;;;;;10.86;67.90;100543.81;4978933;28;46151;-60
2022/09/30 06:37:22;;;;;;;;;18.25;17.75;;;;;10.89;68.01;100550.78;5038576;28;45433;-59
2022/09/30 06:39:49;;;;;;;;;29.60;25.40;;;;;10.90;68.05;100550.56;5038269;28;45700;-59
2022/09/30 06:42:14;;;;;;;;;22.20;19.80;;;;;10.91;67.72;100541.25;5037634;28;46174;-59
2022/09/30 06:44:40;;;;;;;;;20.75;19.00;;;;;10.70;67.42;100510.34;5038255;28;45424;-58
2022/09/30 06:47:06;;;;;;;;;22.50;19.75;;;;;10.81;67.34;100529.91;5053484;28;45262;-59
2022/09/30 06:49:32;;;;;;;;;25.00;20.50;;;;;10.93;67.91;100549.25;5020145;28;45578;-58
2022/09/30 06:51:59;;;;;;;;;18.80;18.20;;;;;10.94;67.11;100560.03;5037816;28;45672;-58
2022/09/30 06:54:27;;;;;;;;;22.80;20.80;;;;;10.95;67.89;100567.22;5037832;28;45409;-57
2022/09/30 06:56:52;;;;;;;;;21.60;20.80;;;;;10.77;67.97;100529.50;5038364;28;45398;-58
2022/09/30 06:59:18;;;;;;;;;18.50;18.50;;;;;10.97;67.82;100565.09;5020193;28;45566;-59
2022/09/30 07:01:44;;;;;;;;;25.00;24.00;;;;;10.60;67.49;100496.22;5019887;28;47576;-58
2022/09/30 07:04:10;;;;;;;;;19.25;18.00;;;;;10.57;67.63;100486.53;5037710;28;45632;-55
2022/09/30 07:06:37;;;;;;;;;21.40;19.80;;;;;11.04;67.46;100566.97;5037477;28;45764;-55
2022/09/30 07:09:04;;;;;;;;;27.00;22.40;;;;;11.04;67.56;100562.31;5037819;28;45339;-58
2022/09/30 07:11:32;;;;;;;;;24.60;23.40;;;;;11.03;67.09;100563.38;5037816;28;45604;-58
2022/09/30 07:13:58;;;;;;;;;22.80;22.80;;;;;11.01;67.71;100554.53;5037576;28;45349;-56
2022/09/30 07:16:26;;;;;;;;;18.75;18.00;;;;;11.09;67.57;100562.50;5037470;28;45322;-55
2022/09/30 07:18:52;;;;;;;;;26.00;21.80;;;;;11.11;67.54;100551.31;5037776;28;45362;-56
2022/09/30 07:21:18;;;;;;;;;24.80;22.20;;;;;10.94;66.77;100520.78;5037487;28;45882;-55
2022/09/30 07:23:46;;;;;;;;;25.25;23.50;;;;;11.17;67.53;100552.31;5037358;28;45386;-54
2022/09/30 07:26:13;;;;;;;;;25.60;24.60;;;;;11.17;67.45;100544.94;5037568;28;45295;-56
2022/09/30 07:28:39;;;;;;;;;25.00;21.00;;;;;11.23;67.58;100552.28;5037252;28;45500;-57
2022/09/30 07:31:12;;;;;;;;;25.80;25.60;;;;;10.96;67.01;100510.41;5026142;28;45853;-57
2022/09/30 07:33:38;;;;;;;;;20.80;20.80;;;;;11.02;67.35;100531.50;5017555;28;45351;-61
2022/09/30 07:36:04;;;;;;;;;24.50;24.50;;;;;11.29;67.21;100566.19;4983101;28;45466;-56
2022/09/30 07:38:30;;;;;;;;;23.25;22.00;;;;;11.34;67.14;100571.84;5017458;28;45422;-58
2022/09/30 07:41:10;;;;;;;;;23.80;23.40;;;;;11.33;66.53;100570.19;5016972;28;46633;-59
2022/09/30 07:43:39;;;;;;;;;25.20;24.20;;;;;11.10;66.46;100530.41;4982195;28;45438;-58
2022/09/30 07:46:04;;;;;;;;;27.20;23.60;;;;;11.39;67.24;100572.88;5017312;28;45415;-60
2022/09/30 07:49:04;;;;;;;;;26.25;24.75;;;;;11.42;67.33;100577.09;5017443;28;45304;-57
2022/09/30 07:51:32;;;;;;;;;28.00;25.40;;;;;11.46;66.82;100577.47;4999680;28;47382;-57
2022/09/30 07:54:03;;;;;;;;;29.20;27.20;;;;;11.48;67.22;100581.69;5016839;28;45407;-58
2022/09/30 07:56:29;;;;;;;;;31.40;28.00;;;;;11.42;67.19;100557.84;5017168;28;45373;-58
2022/09/30 07:58:55;;;;;;;;;26.00;23.50;;;;;11.55;67.18;100569.81;4999496;28;45353;-59
2022/09/30 08:01:21;;;;;;;;;28.40;26.40;;;;;11.59;67.26;100580.13;5016939;28;46273;-58
2022/09/30 08:03:47;;;;;;;;;26.75;24.50;;;;;11.32;66.95;100528.13;5016746;28;45357;-56
2022/09/30 08:06:14;;;;;;;;;35.50;31.75;;;;;11.62;66.99;100581.59;5016839;28;45310;-58
2022/09/30 08:08:40;;;;;;;;;30.20;25.40;;;;;11.64;66.96;100580.31;5017241;28;45408;-58
2022/09/30 08:11:05;;;;;;;;;24.25;24.25;;;;;11.66;66.81;100575.44;5016521;28;45330;-55
2022/09/30 08:13:31;;;;;;;;;25.75;24.75;;;;;11.62;66.37;100576.94;4981376;28;45517;-61
2022/09/30 08:15:57;;;;;;;;;32.75;27.00;;;;;11.60;65.90;100578.25;5005315;28;45856;-57
2022/09/30 08:18:22;;;;;;;;;29.25;28.00;;;;;11.51;65.51;100581.25;4997954;28;45410;-59
2022/09/30 08:20:48;;;;;;;;;29.75;28.25;;;;;11.27;66.34;100555.44;5029557;28;47371;-62
2022/09/30 08:23:14;;;;;;;;;27.25;25.50;;;;;11.40;66.56;100584.72;4960315;28;45905;-59
2022/09/30 08:25:40;;;;;;;;;29.00;27.75;;;;;11.40;66.52;100581.97;4977496;28;45431;-62
2022/09/30 08:28:06;;;;;;;;;26.80;24.60;;;;;11.41;66.79;100580.91;4995472;28;45367;-60
2022/09/30 08:30:34;;;;;;;;;34.00;31.00;;;;;11.42;66.67;100585.31;4983553;28;45696;-59
2022/09/30 08:33:00;;;;;;;;;31.20;29.80;;;;;11.45;66.79;100578.53;5015399;28;45307;-60
2022/09/30 08:35:26;;;;;;;;;34.50;30.75;;;;;11.41;66.56;100580.91;5015167;28;45426;-64
2022/09/30 08:37:54;;;;;;;;;28.25;27.25;;;;;11.44;67.21;100590.59;5014790;28;45311;-62
2022/09/30 08:40:29;;;;;;;;;35.40;31.40;;;;;11.33;67.04;100557.28;5005802;28;46611;-61
2022/09/30 08:43:35;;;;;;;;;36.40;34.00;;;;;11.45;66.28;100579.41;5000842;28;45318;-61
2022/09/30 08:46:34;;;;;;;;;37.60;27.00;;;;;11.55;66.12;100592.66;4992470;28;45340;-61
2022/09/30 08:49:37;;;;;;;;;33.60;31.00;;;;;11.53;66.51;100598.38;5009014;28;45750;-62
2022/09/30 08:52:25;;;;;;;;;31.40;31.40;;;;;11.55;66.30;100589.91;5013206;28;46314;-66
2022/09/30 08:54:52;;;;;;;;;32.80;30.60;;;;;11.63;66.46;100588.81;4980096;28;45805;-62
2022/09/30 08:57:19;;;;;;;;;34.00;32.20;;;;;11.74;65.84;100573.50;4995031;28;45508;-65
2022/09/30 08:59:46;;;;;;;;;40.40;35.60;;;;;11.79;65.89;100580.00;5016870;28;45400;-62
2022/09/30 09:02:30;;;;;;;;;32.00;27.40;;;;;11.92;65.57;100586.44;5015947;28;46596;-61
2022/09/30 09:05:04;;;;;;;;;35.40;34.20;;;;;12.01;65.34;100581.50;4999820;28;46061;-60
2022/09/30 09:07:41;;;;;;;;;29.20;28.20;;;;;11.75;65.04;100547.69;5034631;28;45443;-59
2022/09/30 09:10:45;;;;;;;;;23.80;22.00;;;;;12.11;64.51;100586.53;5015206;28;45452;-61
2022/09/30 09:13:17;;;;;;;;;30.60;24.40;;;;;12.20;64.28;100586.00;5009165;28;47967;-59
2022/09/30 09:16:00;;;;;;;;;21.00;20.00;;;;;12.12;63.28;100574.44;5028804;28;45336;-59
2022/09/30 09:18:37;;;;;;;;;22.20;19.60;;;;;12.19;63.10;100589.84;5014768;28;45498;-59
2022/09/30 09:21:25;;;;;;;;;19.60;18.20;;;;;11.78;62.25;100515.06;5016595;28;45358;-60
2022/09/30 09:23:52;;;;;;;;;16.40;14.00;;;;;12.10;60.92;100549.09;4979155;28;46555;-60
2022/09/30 09:26:18;;;;;;;;;14.60;13.00;;;;;12.44;59.23;100605.44;5016575;28;45475;-60
2022/09/30 09:28:58;;;;;;;;;13.50;13.50;;;;;12.41;60.56;100594.06;5034677;28;45358;-59
2022/09/30 09:31:24;;;;;;;;;14.20;12.40;;;;;12.02;60.09;100526.25;5024159;28;45422;-61
2022/09/30 09:33:49;;;;;;;;;12.75;12.00;;;;;12.55;60.26;100605.78;5015200;28;45534;-60
2022/09/30 09:36:37;;;;;;;;;10.25;10.25;;;;;12.65;59.93;100608.81;5015266;28;45323;-59
2022/09/30 09:39:19;;;;;;;;;9.60;8.20;;;;;12.77;59.14;100617.19;5014974;28;45492;-62
2022/09/30 09:42:22;;;;;;;;;10.60;8.20;;;;;12.39;59.16;100530.16;5013057;28;45445;-60
2022/09/30 09:44:59;;;;;;;;;10.60;8.40;;;;;13.08;59.78;100608.97;5013943;28;47998;-59
2022/09/30 09:47:25;;;;;;;;;10.80;10.80;;;;;13.22;58.84;100612.34;5014508;28;45301;-60
2022/09/30 09:50:07;;;;;;;;;7.50;7.50;;;;;13.39;58.24;100615.31;5015581;28;45337;-60
2022/09/30 09:53:11;;;;;;;;;11.00;10.20;;;;;13.55;56.77;100611.94;5014981;28;45576;-60
2022/09/30 09:55:38;;;;;;;;;15.20;14.20;;;;;13.73;57.49;100604.66;5011830;28;45949;-60
2022/09/30 09:58:16;;;;;;;;;13.60;13.60;;;;;13.72;56.93;100596.63;4977469;28;45284;-60
2022/09/30 10:03:27;;;;;;;;;14.40;13.60;;;;;14.12;57.63;100604.22;5003296;28;45723;-60
2022/09/30 10:06:00;;;;;;;;;12.00;12.00;;;;;14.28;56.47;100590.78;5011490;28;45661;-59
2022/09/30 10:08:28;;;;;;;;;10.00;10.00;;;;;14.40;56.21;100601.84;5014420;28;45294;-59
2022/09/30 10:10:55;;;;;;;;;13.80;13.80;;;;;14.19;56.49;100558.03;5014561;28;45247;-61
2022/09/30 10:13:25;;;;;;;;;18.60;13.80;;;;;14.56;56.28;100594.75;4980788;28;45737;-59
2022/09/30 10:15:55;;;;;;;;;15.00;14.00;;;;;14.54;56.36;100583.06;4979768;28;48351;-60
2022/09/30 10:18:31;;;;;;;;;13.60;12.60;;;;;14.86;54.92;100602.88;4980960;28;45457;-56
2022/09/30 10:20:58;;;;;;;;;14.80;13.20;;;;;15.06;55.00;100612.69;4981014;28;45387;-59
2022/09/30 10:23:31;;;;;;;;;12.00;11.00;;;;;14.90;54.44;100576.41;4997016;28;45538;-60
2022/09/30 10:26:02;;;;;;;;;11.20;9.00;;;;;14.89;54.50;100584.97;5011221;28;45683;-56
2022/09/30 10:28:30;;;;;;;;;12.00;12.00;;;;;15.10;54.50;100599.19;5013807;28;45342;-56
2022/09/30 10:31:13;;;;;;;;;12.80;12.40;;;;;15.05;53.43;100566.75;5002612;28;46259;-56
2022/09/30 10:34:08;;;;;;;;;16.00;13.00;;;;;15.43;53.37;100603.16;4997073;28;45469;-58
2022/09/30 10:36:35;;;;;;;;;16.00;14.60;;;;;15.28;53.42;100579.66;4999580;28;45481;-54
2022/09/30 10:39:15;;;;;;;;;17.00;13.60;;;;;15.36;53.96;100608.00;4996753;28;45360;-57
2022/09/30 10:41:41;;;;;;;;;18.60;15.80;;;;;15.26;54.59;100603.09;4997429;28;45348;-56
2022/09/30 10:44:15;;;;;;;;;13.50;13.50;;;;;15.30;54.63;100610.66;5014349;28;45759;-55
2022/09/30 10:46:41;;;;;;;;;17.20;17.20;;;;;15.39;54.56;100601.97;4995542;28;46498;-57
2022/09/30 10:49:10;;;;;;;;;15.25;13.00;;;;;15.50;53.92;100584.47;4996487;28;45383;-53
2022/09/30 10:51:36;;;;;;;;;12.80;12.40;;;;;15.77;53.83;100605.97;4996916;28;45478;-58
2022/09/30 10:54:03;;;;;;;;;13.00;13.00;;;;;15.88;52.54;100597.81;4996174;28;45269;-58
2022/09/30 10:56:44;;;;;;;;;10.80;8.60;;;;;15.83;51.44;100585.59;4979936;28;45672;-53
2022/09/30 10:59:29;;;;;;;;;13.20;11.00;;;;;16.03;51.78;100595.34;5014265;28;45924;-53
2022/09/30 11:02:12;;;;;;;;;9.60;9.60;;;;;15.46;50.83;100497.53;4996116;28;45330;-52
2022/09/30 11:04:47;;;;;;;;;8.60;8.00;;;;;16.10;50.81;100584.94;5013897;28;45359;-55
2022/09/30 11:07:15;;;;;;;;;10.20;9.00;;;;;16.30;49.01;100591.03;4996078;28;46169;-57
2022/09/30 11:09:47;;;;;;;;;9.80;9.80;;;;;16.41;49.53;100581.78;4996295;28;45564;-56
2022/09/30 11:12:26;;;;;;;;;12.20;12.20;;;;;15.88;48.94;100478.81;4983461;28;45494;-57
2022/09/30 11:15:21;;;;;;;;;7.80;7.80;;;;;16.68;47.40;100594.91;4983888;28;45366;-59
2022/09/30 11:17:59;;;;;;;;;8.60;7.60;;;;;16.78;47.59;100585.88;4999248;28;45491;-59
2022/09/30 11:20:34;;;;;;;;;7.80;6.20;;;;;16.98;48.16;100592.78;4984164;28;45784;-58
2022/09/30 11:23:13;;;;;;;;;11.00;9.80;;;;;17.21;47.36;100600.00;4998910;28;45469;-53
2022/09/30 11:25:56;;;;;;;;;7.00;7.00;;;;;17.42;46.77;100598.28;4999306;28;45749;-59
2022/09/30 11:28:32;;;;;;;;;6.00;5.20;;;;;17.59;46.70;100592.63;5016282;28;45673;-59
2022/09/30 11:31:04;;;;;;;;;7.60;6.80;;;;;17.54;45.65;100581.47;5016869;28;45467;-57